Time;durP1;ratioP1;P1;durP2;ratioP2;P2;SDS_P1;SDS_P2;PMS_P1;PMS_P2;Temp;Humidity;BMP_temperature;BMP_pressure;BME280_temperature;BME280_humidity;BME280_pressure;Samples;Min_cycle;Max_cycle;Signal;HPM_P1;HPM_P2
2024/01/22 00:00:48;;;;;;;39.03;22.52;;;;;;;;;;10547880;28;20407;-81
2024/01/22 00:05:51;;;;;;;41.40;23.67;;;;;;;;;;10545953;28;20442;-80
2024/01/22 00:10:54;;;;;;;38.60;21.40;;;;;;;;;;10547341;27;20474;-81
2024/01/22 00:15:56;;;;;;;38.80;22.27;;;;;;;;;;10544660;27;20447;-81
2024/01/22 00:21:00;;;;;;;37.90;21.67;;;;;;;;;;10548990;28;20412;-81
2024/01/22 00:26:04;;;;;;;38.37;22.80;;;;;;;;;;10545539;27;20416;-81
2024/01/22 00:31:06;;;;;;;38.07;21.27;;;;;;;;;;10548244;28;20949;-81
2024/01/22 00:36:12;;;;;;;35.97;21.10;;;;;;;;;;10548002;28;20440;-80
2024/01/22 00:41:16;;;;;;;32.75;20.17;;;;;;;;;;10548445;27;20420;-81
2024/01/22 00:46:18;;;;;;;38.10;21.30;;;;;;;;;;10542714;28;20396;-81
2024/01/22 00:51:20;;;;;;;36.45;21.00;;;;;;;;;;10560440;28;20492;-81
2024/01/22 00:56:24;;;;;;;38.72;22.17;;;;;;;;;;10553257;28;20425;-81
2024/01/22 01:01:26;;;;;;;42.00;23.23;;;;;;;;;;10545414;28;20401;-81
2024/01/22 01:06:29;;;;;;;39.22;22.88;;;;;;;;;;10545162;28;20417;-81
2024/01/22 01:11:33;;;;;;;41.53;23.95;;;;;;;;;;10543552;28;20442;-80
2024/01/22 01:16:35;;;;;;;42.75;23.63;;;;;;;;;;10541573;28;21312;-81
2024/01/22 01:21:39;;;;;;;43.55;22.58;;;;;;;;;;10542294;28;20489;-81
2024/01/22 01:26:43;;;;;;;40.87;23.67;;;;;;;;;;10541325;27;20770;-81
2024/01/22 01:31:45;;;;;;;40.83;23.33;;;;;;;;;;10542713;28;20436;-81
2024/01/22 01:36:48;;;;;;;43.50;23.50;;;;;;;;;;10538468;28;20898;-81
2024/01/22 01:41:52;;;;;;;42.88;23.33;;;;;;;;;;10542573;28;20474;-82
2024/01/22 01:46:54;;;;;;;43.00;23.75;;;;;;;;;;10538959;28;20424;-81
2024/01/22 01:51:57;;;;;;;41.03;22.60;;;;;;;;;;10546939;28;20404;-81
2024/01/22 01:57:01;;;;;;;38.05;21.75;;;;;;;;;;10548064;28;20447;-81
2024/01/22 02:02:03;;;;;;;37.70;21.38;;;;;;;;;;10545279;28;20451;-80
2024/01/22 02:07:06;;;;;;;34.03;21.33;;;;;;;;;;10544790;28;20428;-81
2024/01/22 02:12:10;;;;;;;36.35;20.92;;;;;;;;;;10544348;28;20973;-81
2024/01/22 02:17:12;;;;;;;34.58;20.52;;;;;;;;;;10542440;28;20404;-81
2024/01/22 02:22:15;;;;;;;37.40;21.10;;;;;;;;;;10546293;28;20890;-81
2024/01/22 02:27:18;;;;;;;36.13;20.40;;;;;;;;;;10547475;28;20467;-81
2024/01/22 02:32:21;;;;;;;38.33;20.48;;;;;;;;;;10555629;28;20483;-81
2024/01/22 02:37:23;;;;;;;34.88;20.60;;;;;;;;;;10546164;28;20400;-81
2024/01/22 02:42:27;;;;;;;38.95;22.48;;;;;;;;;;10557005;27;20467;-81
2024/01/22 02:47:29;;;;;;;38.07;23.23;;;;;;;;;;10550704;28;20426;-81
2024/01/22 02:52:31;;;;;;;45.05;25.75;;;;;;;;;;10555120;28;20439;-81
2024/01/22 02:57:35;;;;;;;43.13;25.90;;;;;;;;;;10549447;27;20404;-81
2024/01/22 03:02:38;;;;;;;43.77;25.23;;;;;;;;;;10550019;28;20462;-81
2024/01/22 03:07:40;;;;;;;42.87;23.17;;;;;;;;;;10554732;28;20410;-80
2024/01/22 03:12:44;;;;;;;39.50;21.95;;;;;;;;;;10549987;27;20430;-81
2024/01/22 03:17:46;;;;;;;39.08;22.70;;;;;;;;;;10552644;28;20878;-81
2024/01/22 03:22:48;;;;;;;41.17;22.80;;;;;;;;;;10550466;28;20399;-81
2024/01/22 03:27:52;;;;;;;41.97;22.85;;;;;;;;;;10548401;27;20404;-80
2024/01/22 03:32:54;;;;;;;38.95;23.13;;;;;;;;;;10550311;28;20487;-81
2024/01/22 03:37:57;;;;;;;39.20;22.67;;;;;;;;;;10552058;28;20450;-81
2024/01/22 03:43:01;;;;;;;39.53;23.42;;;;;;;;;;10549307;27;20770;-81
2024/01/22 03:48:03;;;;;;;38.45;23.30;;;;;;;;;;10551661;28;20397;-81
2024/01/22 03:53:05;;;;;;;37.90;21.77;;;;;;;;;;10545309;28;20461;-80
2024/01/22 03:58:09;;;;;;;37.03;20.13;;;;;;;;;;10545375;28;21028;-82
2024/01/22 04:03:11;;;;;;;34.95;19.92;;;;;;;;;;10547803;28;21015;-81
2024/01/22 04:08:14;;;;;;;32.92;17.83;;;;;;;;;;10546227;28;20888;-81
2024/01/22 04:13:17;;;;;;;30.38;17.10;;;;;;;;;;10546024;27;20818;-80
2024/01/22 04:18:20;;;;;;;32.58;17.27;;;;;;;;;;10543126;28;20402;-82
2024/01/22 04:23:22;;;;;;;24.98;13.85;;;;;;;;;;10549930;28;20447;-81
2024/01/22 04:28:26;;;;;;;23.52;11.95;;;;;;;;;;10545733;28;20404;-80
2024/01/22 04:33:28;;;;;;;16.70;10.05;;;;;;;;;;10549368;28;20423;-81
2024/01/22 04:38:31;;;;;;;17.27;10.35;;;;;;;;;;10552665;28;20404;-82
2024/01/22 04:43:34;;;;;;;14.13;9.52;;;;;;;;;;10540776;27;20404;-81
2024/01/22 04:48:38;;;;;;;15.20;9.50;;;;;;;;;;10550344;28;20407;-80
2024/01/22 04:53:40;;;;;;;14.77;7.33;;;;;;;;;;10548405;28;20410;-81
2024/01/22 04:58:44;;;;;;;18.83;8.82;;;;;;;;;;10549801;28;20458;-81
2024/01/22 05:03:46;;;;;;;12.68;7.72;;;;;;;;;;10541378;28;20814;-81
2024/01/22 05:08:48;;;;;;;13.97;8.03;;;;;;;;;;10541229;28;20438;-81
2024/01/22 05:13:53;;;;;;;10.20;6.60;;;;;;;;;;10545272;28;20975;-81
2024/01/22 05:18:56;;;;;;;13.82;7.70;;;;;;;;;;10544059;28;20485;-81
2024/01/22 05:23:58;;;;;;;11.88;6.85;;;;;;;;;;10542554;28;20473;-81
2024/01/22 05:29:02;;;;;;;13.23;7.37;;;;;;;;;;10543312;28;20491;-81
2024/01/22 05:34:04;;;;;;;11.63;6.47;;;;;;;;;;10548854;28;20959;-81
2024/01/22 05:39:06;;;;;;;11.30;5.85;;;;;;;;;;10550943;28;20463;-81
2024/01/22 05:44:10;;;;;;;9.43;5.70;;;;;;;;;;10544806;28;20438;-81
2024/01/22 05:49:12;;;;;;;9.90;5.60;;;;;;;;;;10546942;28;20403;-80
2024/01/22 05:54:15;;;;;;;10.80;6.38;;;;;;;;;;10550145;28;20770;-81
2024/01/22 05:59:19;;;;;;;12.65;5.93;;;;;;;;;;10542599;28;20400;-83
2024/01/22 06:04:22;;;;;;;14.10;6.60;;;;;;;;;;10545823;28;20404;-82
2024/01/22 06:09:25;;;;;;;11.60;6.45;;;;;;;;;;10540707;28;20447;-83
2024/01/22 06:14:29;;;;;;;11.95;6.75;;;;;;;;;;10548418;28;20777;-83
2024/01/22 06:19:31;;;;;;;10.30;6.35;;;;;;;;;;10557045;28;20866;-82
2024/01/22 06:24:36;;;;;;;16.02;7.85;;;;;;;;;;10568362;28;20400;-82
2024/01/22 06:29:39;;;;;;;17.02;9.45;;;;;;;;;;10549744;28;20995;-82
2024/01/22 06:34:42;;;;;;;24.20;11.20;;;;;;;;;;10555492;28;20491;-82
2024/01/22 06:39:44;;;;;;;18.73;9.80;;;;;;;;;;10552451;28;20396;-83
2024/01/22 06:44:48;;;;;;;18.43;10.37;;;;;;;;;;10545920;27;20547;-82
2024/01/22 06:49:50;;;;;;;25.25;13.88;;;;;;;;;;10551338;27;20420;-82
2024/01/22 06:54:53;;;;;;;31.73;15.48;;;;;;;;;;10554166;28;20812;-82
2024/01/22 06:59:57;;;;;;;35.35;15.20;;;;;;;;;;10547188;28;20982;-82
2024/01/22 07:04:59;;;;;;;26.47;13.97;;;;;;;;;;10544772;28;20455;-83
2024/01/22 07:10:02;;;;;;;27.90;14.82;;;;;;;;;;10546364;28;20430;-82
2024/01/22 07:15:08;;;;;;;29.07;15.23;;;;;;;;;;10555506;27;20422;-83
2024/01/22 07:20:13;;;;;;;32.37;17.43;;;;;;;;;;10545849;28;20420;-81
2024/01/22 07:25:16;;;;;;;46.60;23.75;;;;;;;;;;10549647;27;20408;-83
2024/01/22 07:30:21;;;;;;;31.83;18.13;;;;;;;;;;10549090;28;20469;-83
2024/01/22 07:35:24;;;;;;;30.55;18.02;;;;;;;;;;10555825;28;20523;-83
2024/01/22 07:40:26;;;;;;;28.17;16.42;;;;;;;;;;10548500;28;20910;-83
2024/01/22 07:45:30;;;;;;;26.75;15.30;;;;;;;;;;10547555;28;20411;-82
2024/01/22 07:50:32;;;;;;;24.63;14.55;;;;;;;;;;10550779;28;20885;-83
2024/01/22 07:55:34;;;;;;;25.10;15.10;;;;;;;;;;10551433;28;21008;-83
2024/01/22 08:00:38;;;;;;;25.25;13.88;;;;;;;;;;10548286;28;20485;-82
2024/01/22 08:05:41;;;;;;;24.05;13.23;;;;;;;;;;10551031;28;20408;-82
2024/01/22 08:10:44;;;;;;;20.17;12.82;;;;;;;;;;10535089;27;20414;-83
2024/01/22 08:15:48;;;;;;;20.60;12.32;;;;;;;;;;10557625;28;20420;-83
2024/01/22 08:20:50;;;;;;;23.03;12.13;;;;;;;;;;10543787;28;20482;-83
2024/01/22 08:25:53;;;;;;;23.63;12.32;;;;;;;;;;10528999;22;20466;-83
2024/01/22 08:30:56;;;;;;;25.23;12.00;;;;;;;;;;10481636;28;20420;-83
2024/01/22 08:35:58;;;;;;;19.55;11.93;;;;;;;;;;10462245;28;20422;-81
2024/01/22 08:41:01;;;;;;;23.58;12.88;;;;;;;;;;10472875;28;20437;-83
2024/01/22 08:46:05;;;;;;;20.80;12.45;;;;;;;;;;10483119;28;20463;-83
2024/01/22 08:51:07;;;;;;;23.73;12.50;;;;;;;;;;10479163;28;20876;-84
2024/01/22 08:56:09;;;;;;;18.33;11.82;;;;;;;;;;10478708;28;20475;-84
2024/01/22 09:01:13;;;;;;;17.13;10.88;;;;;;;;;;10478398;28;20408;-83
2024/01/22 09:06:15;;;;;;;19.23;11.02;;;;;;;;;;10472281;28;20881;-83
2024/01/22 09:11:18;;;;;;;19.20;10.35;;;;;;;;;;10477941;28;20459;-83
2024/01/22 09:16:21;;;;;;;18.92;10.27;;;;;;;;;;10480065;28;20902;-83
2024/01/22 09:21:24;;;;;;;19.15;10.23;;;;;;;;;;10470744;28;20770;-83
2024/01/22 09:26:26;;;;;;;14.45;9.57;;;;;;;;;;10482969;28;20412;-83
2024/01/22 09:31:30;;;;;;;19.02;11.10;;;;;;;;;;10482602;28;20750;-83
2024/01/22 09:36:32;;;;;;;18.58;10.88;;;;;;;;;;10476149;28;20489;-83
2024/01/22 09:41:36;;;;;;;17.67;10.20;;;;;;;;;;10480061;28;20946;-82
2024/01/22 09:46:41;;;;;;;18.30;10.18;;;;;;;;;;10479696;28;20473;-83
2024/01/22 09:51:44;;;;;;;19.95;11.23;;;;;;;;;;10485026;28;20412;-83
2024/01/22 09:56:51;;;;;;;23.17;10.57;;;;;;;;;;10495296;28;20410;-84
2024/01/22 10:01:56;;;;;;;20.30;12.65;;;;;;;;;;10480582;28;20471;-83
2024/01/22 10:07:01;;;;;;;29.40;15.77;;;;;;;;;;10491190;28;20477;-83
2024/01/22 10:12:03;;;;;;;20.48;13.65;;;;;;;;;;10492482;28;20410;-82
2024/01/22 10:17:17;;;;;;;29.70;18.45;;;;;;;;;;10495824;28;20454;-82
2024/01/22 10:22:20;;;;;;;17.63;10.40;;;;;;;;;;10491017;28;20586;-83
2024/01/22 10:27:22;;;;;;;15.95;9.52;;;;;;;;;;10484471;28;20432;-83
2024/01/22 10:32:26;;;;;;;15.18;8.90;;;;;;;;;;10478771;28;20403;-83
2024/01/22 10:37:28;;;;;;;17.85;9.45;;;;;;;;;;10479922;28;20847;-83
2024/01/22 10:42:31;;;;;;;22.35;10.30;;;;;;;;;;10487241;28;20469;-83
2024/01/22 10:47:35;;;;;;;13.98;8.93;;;;;;;;;;10489033;28;20436;-83
2024/01/22 10:52:39;;;;;;;62.27;30.80;;;;;;;;;;10495698;28;20410;-84
2024/01/22 10:57:43;;;;;;;62.05;39.83;;;;;;;;;;10481712;28;20414;-82
2024/01/22 11:02:49;;;;;;;25.77;16.67;;;;;;;;;;10493968;28;20461;-82
2024/01/22 11:07:54;;;;;;;19.20;11.45;;;;;;;;;;10490602;28;20469;-83
2024/01/22 11:12:58;;;;;;;14.82;9.90;;;;;;;;;;10475486;28;20486;-83
2024/01/22 11:18:02;;;;;;;15.27;9.10;;;;;;;;;;10489097;28;20463;-83
2024/01/22 11:23:08;;;;;;;15.10;9.33;;;;;;;;;;10480316;28;20442;-83
2024/01/22 11:28:15;;;;;;;17.67;10.33;;;;;;;;;;10488513;28;20519;-82
2024/01/22 11:33:32;;;;;;;15.85;9.60;;;;;;;;;;10487892;28;20431;-83
2024/01/22 11:38:51;;;;;;;16.25;9.90;;;;;;;;;;10489360;28;20461;-81
2024/01/22 11:43:53;;;;;;;15.40;10.35;;;;;;;;;;10493794;28;20523;-83
2024/01/22 11:48:57;;;;;;;17.38;9.93;;;;;;;;;;10490130;28;21058;-81
2024/01/22 11:53:59;;;;;;;15.47;9.87;;;;;;;;;;10475727;28;20515;-83
2024/01/22 11:59:03;;;;;;;13.82;8.73;;;;;;;;;;10471967;28;20578;-82
2024/01/22 12:04:10;;;;;;;14.70;10.10;;;;;;;;;;10476180;28;20464;-83
2024/01/22 12:09:13;;;;;;;13.48;9.63;;;;;;;;;;10484606;28;20843;-84
2024/01/22 12:14:15;;;;;;;15.15;9.57;;;;;;;;;;10461670;28;20976;-82
2024/01/22 12:19:19;;;;;;;16.98;10.98;;;;;;;;;;10471297;28;20515;-83
2024/01/22 12:24:21;;;;;;;18.17;12.73;;;;;;;;;;10470276;28;20909;-84
2024/01/22 12:29:25;;;;;;;16.30;10.55;;;;;;;;;;10467200;28;20496;-84
2024/01/22 12:34:30;;;;;;;16.98;11.82;;;;;;;;;;10453572;28;20434;-82
2024/01/22 12:39:34;;;;;;;15.15;10.52;;;;;;;;;;10452376;28;20487;-83
2024/01/22 12:44:37;;;;;;;15.82;10.75;;;;;;;;;;10455921;28;20471;-82
2024/01/22 12:49:40;;;;;;;15.80;10.98;;;;;;;;;;10454428;28;20532;-82
2024/01/22 12:54:43;;;;;;;17.42;9.98;;;;;;;;;;10459874;28;20483;-83
2024/01/22 12:59:49;;;;;;;15.90;9.30;;;;;;;;;;10480814;28;20594;-84
2024/01/22 13:04:53;;;;;;;15.70;9.10;;;;;;;;;;10483310;28;21177;-83
2024/01/22 13:09:55;;;;;;;13.23;9.82;;;;;;;;;;10480478;28;20461;-83
2024/01/22 13:14:58;;;;;;;14.30;9.30;;;;;;;;;;10473853;28;20476;-82
2024/01/22 13:20:02;;;;;;;13.63;9.27;;;;;;;;;;10480020;28;20895;-81
2024/01/22 13:25:05;;;;;;;13.18;9.43;;;;;;;;;;10473196;28;20424;-82
2024/01/22 13:30:09;;;;;;;18.63;12.37;;;;;;;;;;10437487;28;20543;-82
2024/01/22 13:35:15;;;;;;;18.33;11.82;;;;;;;;;;10470349;28;20428;-82
2024/01/22 13:40:17;;;;;;;28.67;20.80;;;;;;;;;;10450689;28;20556;-82
2024/01/22 13:45:20;;;;;;;15.37;10.00;;;;;;;;;;10475844;28;20445;-82
2024/01/22 13:50:24;;;;;;;14.05;10.02;;;;;;;;;;10454894;28;20945;-83
2024/01/22 13:55:26;;;;;;;22.00;12.70;;;;;;;;;;10456966;28;20434;-82
2024/01/22 14:00:28;;;;;;;14.15;9.32;;;;;;;;;;10460436;28;20573;-83
2024/01/22 14:05:32;;;;;;;14.10;9.90;;;;;;;;;;10450432;28;21030;-83
2024/01/22 14:10:34;;;;;;;14.30;10.02;;;;;;;;;;10454040;28;20805;-82
2024/01/22 14:15:37;;;;;;;16.63;11.77;;;;;;;;;;10459754;28;20468;-82
2024/01/22 14:20:40;;;;;;;20.13;12.88;;;;;;;;;;10472368;28;20450;-82
2024/01/22 14:25:43;;;;;;;18.17;12.40;;;;;;;;;;10460547;28;20500;-82
2024/01/22 14:30:45;;;;;;;20.08;13.20;;;;;;;;;;10457717;28;20663;-83
2024/01/22 14:35:50;;;;;;;20.83;14.00;;;;;;;;;;10457541;28;21217;-83
2024/01/22 14:40:52;;;;;;;21.07;14.03;;;;;;;;;;10461887;28;20918;-82
2024/01/22 14:45:55;;;;;;;20.85;13.88;;;;;;;;;;10480740;28;20540;-83
2024/01/22 14:50:59;;;;;;;21.33;14.20;;;;;;;;;;10461793;28;20435;-83
2024/01/22 14:56:02;;;;;;;22.40;14.60;;;;;;;;;;10463243;28;20822;-83
2024/01/22 15:01:05;;;;;;;24.67;15.57;;;;;;;;;;10478570;28;20413;-83
2024/01/22 15:06:08;;;;;;;30.35;19.08;;;;;;;;;;10480642;28;20439;-82
2024/01/22 15:11:11;;;;;;;30.33;19.40;;;;;;;;;;10471206;28;20526;-83
2024/01/22 15:16:13;;;;;;;37.08;21.52;;;;;;;;;;10457085;28;20435;-82
2024/01/22 15:21:17;;;;;;;35.03;19.15;;;;;;;;;;10461175;28;20434;-82
2024/01/22 15:26:19;;;;;;;27.27;16.75;;;;;;;;;;10445120;28;20491;-84
2024/01/22 15:31:22;;;;;;;28.63;17.40;;;;;;;;;;10463002;28;20531;-83
2024/01/22 15:36:27;;;;;;;27.67;16.70;;;;;;;;;;10459287;28;20449;-83
2024/01/22 15:41:29;;;;;;;27.55;18.20;;;;;;;;;;10468702;28;20990;-84
2024/01/22 15:46:31;;;;;;;29.40;18.80;;;;;;;;;;10461689;28;20826;-83
2024/01/22 15:51:35;;;;;;;33.47;18.88;;;;;;;;;;10457472;28;20439;-82
2024/01/22 15:56:38;;;;;;;28.67;18.67;;;;;;;;;;10449997;28;21084;-84
2024/01/22 16:01:40;;;;;;;33.90;22.33;;;;;;;;;;10480541;28;20479;-83
2024/01/22 16:06:44;;;;;;;35.25;20.95;;;;;;;;;;10469991;28;20470;-84
2024/01/22 16:11:46;;;;;;;37.27;22.83;;;;;;;;;;10475466;28;20413;-83
2024/01/22 16:16:49;;;;;;;36.30;23.23;;;;;;;;;;10475196;28;20472;-83
2024/01/22 16:21:53;;;;;;;31.88;19.83;;;;;;;;;;10475203;28;20480;-83
2024/01/22 16:26:57;;;;;;;31.37;20.60;;;;;;;;;;10477622;28;20450;-83
2024/01/22 16:31:59;;;;;;;32.60;20.63;;;;;;;;;;10471038;28;20400;-83
2024/01/22 16:37:03;;;;;;;36.30;20.60;;;;;;;;;;10487055;28;20476;-83
2024/01/22 16:42:06;;;;;;;34.37;21.07;;;;;;;;;;10475855;28;20422;-82
2024/01/22 16:47:09;;;;;;;36.73;22.80;;;;;;;;;;10470336;28;20524;-83
2024/01/22 16:52:13;;;;;;;33.95;20.90;;;;;;;;;;10472749;28;20439;-83
2024/01/22 16:57:15;;;;;;;37.05;21.65;;;;;;;;;;10466363;28;20503;-82
2024/01/22 17:02:17;;;;;;;46.65;27.40;;;;;;;;;;10462222;28;20434;-82
2024/01/22 17:07:21;;;;;;;42.10;24.27;;;;;;;;;;10454527;28;20484;-81
2024/01/22 17:12:23;;;;;;;44.60;27.15;;;;;;;;;;10461463;28;20964;-81
2024/01/22 17:17:26;;;;;;;49.30;27.37;;;;;;;;;;10458837;28;20965;-80
2024/01/22 17:22:29;;;;;;;49.65;27.35;;;;;;;;;;10450437;28;20468;-82
2024/01/22 17:27:32;;;;;;;49.27;27.47;;;;;;;;;;10475007;28;20444;-82
2024/01/22 17:32:34;;;;;;;40.60;24.65;;;;;;;;;;10459923;28;20523;-83
2024/01/22 17:37:38;;;;;;;36.42;24.52;;;;;;;;;;10468975;28;20428;-82
2024/01/22 17:42:40;;;;;;;46.33;26.67;;;;;;;;;;10468358;28;20416;-81
2024/01/22 17:47:42;;;;;;;40.22;25.60;;;;;;;;;;10460439;28;20455;-81
2024/01/22 17:52:46;;;;;;;43.70;27.70;;;;;;;;;;10459566;28;20477;-83
2024/01/22 17:57:50;;;;;;;43.00;25.87;;;;;;;;;;10457015;28;20574;-82
2024/01/22 18:02:52;;;;;;;49.75;27.20;;;;;;;;;;10464299;28;20445;-83
2024/01/22 18:07:56;;;;;;;44.73;27.33;;;;;;;;;;10465441;28;20453;-83
2024/01/22 18:12:58;;;;;;;50.50;28.00;;;;;;;;;;10469566;28;20453;-82
2024/01/22 18:18:01;;;;;;;50.35;30.15;;;;;;;;;;10474994;28;20452;-82
2024/01/22 18:23:04;;;;;;;49.83;29.70;;;;;;;;;;10475866;28;20480;-81
2024/01/22 18:28:09;;;;;;;47.22;29.92;;;;;;;;;;10474529;28;20453;-84
2024/01/22 18:33:11;;;;;;;49.63;29.10;;;;;;;;;;10475516;28;20469;-83
2024/01/22 18:38:15;;;;;;;49.17;28.25;;;;;;;;;;10475946;28;20498;-81
2024/01/22 18:43:18;;;;;;;48.13;29.57;;;;;;;;;;10474978;28;20563;-80
2024/01/22 18:48:21;;;;;;;51.58;30.63;;;;;;;;;;10466366;28;20436;-82
2024/01/22 18:53:24;;;;;;;51.65;31.20;;;;;;;;;;10468688;28;21098;-81
2024/01/22 18:58:27;;;;;;;50.53;30.77;;;;;;;;;;10460930;28;20416;-81
2024/01/22 19:03:30;;;;;;;58.00;33.60;;;;;;;;;;10470661;28;20881;-82
2024/01/22 19:08:34;;;;;;;75.25;38.38;;;;;;;;;;10466257;28;21361;-81
2024/01/22 19:13:37;;;;;;;63.80;36.33;;;;;;;;;;10472393;28;20991;-82
2024/01/22 19:18:39;;;;;;;60.17;35.63;;;;;;;;;;10467046;28;20447;-80
2024/01/22 19:23:43;;;;;;;63.85;34.92;;;;;;;;;;10478160;28;20431;-80
2024/01/22 19:28:47;;;;;;;60.20;34.63;;;;;;;;;;10474780;28;20476;-81
2024/01/22 19:33:49;;;;;;;57.00;34.60;;;;;;;;;;10477831;28;20410;-80
2024/01/22 19:38:53;;;;;;;57.47;34.90;;;;;;;;;;10459844;28;20552;-80
2024/01/22 19:43:55;;;;;;;56.83;34.77;;;;;;;;;;10465896;28;20445;-79
2024/01/22 19:48:58;;;;;;;64.72;36.78;;;;;;;;;;10472161;28;20453;-80
2024/01/22 19:54:01;;;;;;;65.77;36.97;;;;;;;;;;10472328;28;20469;-80
2024/01/22 19:59:04;;;;;;;65.30;37.47;;;;;;;;;;10469787;28;20519;-79
2024/01/22 20:04:06;;;;;;;62.33;37.88;;;;;;;;;;10472456;28;20449;-79
2024/01/22 20:09:10;;;;;;;70.43;38.30;;;;;;;;;;10467842;28;20426;-81
2024/01/22 20:14:12;;;;;;;70.40;40.75;;;;;;;;;;10469512;28;20462;-80
2024/01/22 20:19:14;;;;;;;71.85;40.92;;;;;;;;;;10466099;28;20459;-83
2024/01/22 20:24:18;;;;;;;67.93;42.40;;;;;;;;;;10465403;28;20441;-85
2024/01/22 20:29:22;;;;;;;73.00;41.72;;;;;;;;;;10474429;28;20454;-84
2024/01/22 20:34:24;;;;;;;75.13;40.65;;;;;;;;;;10465133;28;20459;-83
2024/01/22 20:39:28;;;;;;;70.15;41.38;;;;;;;;;;10470398;28;21025;-86
2024/01/22 20:44:30;;;;;;;67.55;40.50;;;;;;;;;;10468417;28;20424;-87
2024/01/22 20:49:32;;;;;;;69.53;41.15;;;;;;;;;;10463141;28;20429;-86
2024/01/22 20:54:36;;;;;;;68.57;40.85;;;;;;;;;;10466071;28;21061;-87
2024/01/22 20:59:39;;;;;;;63.27;39.20;;;;;;;;;;10470950;28;20454;-84
2024/01/22 21:04:41;;;;;;;65.97;38.92;;;;;;;;;;10458844;28;20457;-87
2024/01/22 21:09:45;;;;;;;61.72;36.42;;;;;;;;;;10449990;28;20507;-85
2024/01/22 21:14:47;;;;;;;59.80;36.78;;;;;;;;;;10449337;28;20414;-85
2024/01/22 21:19:50;;;;;;;69.22;37.05;;;;;;;;;;10460212;28;20457;-84
2024/01/22 21:24:54;;;;;;;77.53;41.37;;;;;;;;;;10454865;28;20444;-86
2024/01/22 21:29:56;;;;;;;74.63;40.30;;;;;;;;;;10456025;28;20437;-85
2024/01/22 21:34:59;;;;;;;68.43;37.58;;;;;;;;;;10444272;28;20455;-86
2024/01/22 21:40:03;;;;;;;71.40;39.47;;;;;;;;;;10463643;28;20541;-86
2024/01/22 21:45:06;;;;;;;67.38;38.88;;;;;;;;;;10456142;28;20440;-86
2024/01/22 21:50:09;;;;;;;67.10;37.93;;;;;;;;;;10463277;28;20449;-85
2024/01/22 21:55:13;;;;;;;69.73;37.87;;;;;;;;;;10468656;28;20410;-85
2024/01/22 22:00:16;;;;;;;68.13;39.40;;;;;;;;;;10469189;28;20452;-86
2024/01/22 22:05:18;;;;;;;65.03;37.95;;;;;;;;;;10458157;28;20416;-86
2024/01/22 22:10:26;;;;;;;81.13;42.28;;;;;;;;;;10455045;28;20418;-85
2024/01/22 22:15:29;;;;;;;76.97;41.13;;;;;;;;;;10467883;28;20483;-85
2024/01/22 22:20:32;;;;;;;82.15;41.30;;;;;;;;;;10456519;28;20451;-84
2024/01/22 22:25:36;;;;;;;67.05;37.65;;;;;;;;;;10456129;28;20523;-83
2024/01/22 22:30:38;;;;;;;57.33;34.67;;;;;;;;;;10458381;28;20500;-83
2024/01/22 22:35:41;;;;;;;57.40;32.05;;;;;;;;;;10466786;28;20405;-84
2024/01/22 22:40:44;;;;;;;50.20;30.97;;;;;;;;;;10455840;28;20860;-84
2024/01/22 22:45:47;;;;;;;52.30;30.52;;;;;;;;;;10454341;28;20447;-84
2024/01/22 22:50:49;;;;;;;54.30;31.45;;;;;;;;;;10456466;28;20406;-84
2024/01/22 22:55:53;;;;;;;57.97;31.13;;;;;;;;;;10457231;28;20437;-84
2024/01/22 23:00:56;;;;;;;52.40;31.70;;;;;;;;;;10469980;28;20489;-84
2024/01/22 23:05:59;;;;;;;51.53;31.02;;;;;;;;;;10464144;28;20430;-84
2024/01/22 23:11:03;;;;;;;57.17;32.92;;;;;;;;;;10472833;28;20940;-84
2024/01/22 23:16:06;;;;;;;52.90;30.63;;;;;;;;;;10481106;28;20497;-83
2024/01/22 23:21:08;;;;;;;51.50;31.17;;;;;;;;;;10476568;28;20512;-84
2024/01/22 23:26:12;;;;;;;52.30;30.60;;;;;;;;;;10476523;28;20415;-84
2024/01/22 23:31:14;;;;;;;49.58;30.60;;;;;;;;;;10480631;28;20416;-83
2024/01/22 23:36:17;;;;;;;51.92;30.95;;;;;;;;;;10483486;28;20409;-84
2024/01/22 23:41:22;;;;;;;52.05;30.88;;;;;;;;;;10478851;28;20475;-84
2024/01/22 23:46:24;;;;;;;50.67;29.55;;;;;;;;;;10481975;28;20414;-83
2024/01/22 23:51:26;;;;;;;51.27;29.50;;;;;;;;;;10479736;28;20410;-84
2024/01/22 23:56:30;;;;;;;49.75;29.60;;;;;;;;;;10475590;28;20481;-83
